createdAt,value
2023-04-22T00:00:56.812Z,50352.77
2023-04-22T00:03:25.137Z,50340.38
2023-04-22T00:05:53.641Z,50338.38
2023-04-22T00:08:22.015Z,50358.77
2023-04-22T00:10:50.592Z,50349.18
2023-04-22T00:13:18.842Z,50345.98
2023-04-22T00:15:47.070Z,50347.57
2023-04-22T00:18:15.421Z,50347.18
2023-04-22T00:20:44.357Z,50344.78
2023-04-22T00:23:13.433Z,50337.57
2023-04-22T00:25:42.118Z,50359.18
2023-04-22T00:28:11.322Z,50321.98
2023-04-22T00:30:39.765Z,50331.58
2023-04-22T00:33:08.104Z,50362.77
2023-04-22T00:35:37.033Z,50335.98
2023-04-22T00:38:05.742Z,50355.18
2023-04-22T00:40:33.968Z,50343.58
2023-04-22T00:43:03.485Z,50327.98
2023-04-22T00:45:32.313Z,50346.77
2023-04-22T00:48:01.760Z,50345.18
2023-04-22T00:50:30.814Z,50346.77
2023-04-22T00:52:59.955Z,50347.18
2023-04-22T00:55:28.600Z,50344.77
2023-04-22T00:58:00.983Z,50361.17
2023-04-22T01:00:29.404Z,50350.77
2023-04-22T01:02:58.156Z,50343.18
2023-04-22T01:05:29.449Z,50349.57
2023-04-22T01:07:57.847Z,50352.38
2023-04-22T01:10:26.574Z,50373.17
2023-04-22T01:12:54.856Z,50336.78
2023-04-22T01:15:24.037Z,50356.77
2023-04-22T01:17:53.738Z,50365.17
2023-04-22T01:20:23.511Z,50365.57
2023-04-22T01:22:57.575Z,50356.77
2023-04-22T01:25:26.701Z,50361.57
2023-04-22T01:27:56.307Z,50360.77
2023-04-22T01:30:25.200Z,50343.57
2023-04-22T01:32:53.634Z,50365.97
2023-04-22T01:35:23.538Z,50365.97
2023-04-22T01:37:51.877Z,50359.57
2023-04-22T01:40:22.837Z,50373.57
2023-04-22T01:42:51.806Z,50344.77
2023-04-22T01:45:19.993Z,50369.17
2023-04-22T01:47:48.253Z,50351.98
2023-04-22T01:50:16.555Z,50351.98
2023-04-22T01:52:44.781Z,50364.77
2023-04-22T01:55:13.460Z,50350.77
2023-04-22T01:57:41.695Z,50335.18
2023-04-22T02:00:10.870Z,50366.77
2023-04-22T02:02:41.924Z,50359.97
2023-04-22T02:05:10.696Z,50344.77
2023-04-22T02:07:38.881Z,50352.38
2023-04-22T02:10:09.901Z,50354.38
2023-04-22T02:12:38.505Z,50338.78
2023-04-22T02:15:07.658Z,50353.57
2023-04-22T02:17:36.181Z,50352.38
2023-04-22T02:20:05.537Z,50335.18
2023-04-22T02:22:34.545Z,50343.57
2023-04-22T02:25:03.559Z,50336.78
2023-04-22T02:27:33.070Z,50349.57
2023-04-22T02:30:01.375Z,50336.78
2023-04-22T02:32:30.236Z,50353.57
2023-04-22T02:34:58.451Z,50359.18
2023-04-22T02:37:26.704Z,50336.78
2023-04-22T02:39:55.675Z,50340.38
2023-04-22T02:42:24.126Z,50338.38
2023-04-22T02:44:52.518Z,50337.98
2023-04-22T02:47:22.562Z,50348.38
2023-04-22T02:49:50.925Z,50343.18
2023-04-22T02:52:19.144Z,50327.98
2023-04-22T02:54:47.364Z,50349.98
2023-04-22T02:57:16.513Z,50342.78
2023-04-22T02:59:44.910Z,50363.97
2023-04-22T03:02:14.336Z,50329.98
2023-04-22T03:05:01.087Z,50342.38
2023-04-22T03:07:31.108Z,50340.78
2023-04-22T03:09:59.835Z,50340.38
2023-04-22T03:12:28.164Z,50328.38
2023-04-22T03:14:56.465Z,50336.78
2023-04-22T03:17:26.237Z,50349.57
2023-04-22T03:19:54.768Z,50341.57
2023-04-22T03:22:23.436Z,50345.98
2023-04-22T03:24:52.236Z,50353.57
2023-04-22T03:27:20.660Z,50336.38
2023-04-22T03:29:50.519Z,50336.38
2023-04-22T03:32:19.001Z,50333.98
2023-04-22T03:34:47.617Z,50337.98
2023-04-22T03:37:16.699Z,50344.38
2023-04-22T03:39:45.321Z,50329.18
2023-04-22T03:42:16.745Z,50325.58
2023-04-22T03:44:45.152Z,50323.59
2023-04-22T03:47:14.233Z,50313.59
2023-04-22T03:49:46.809Z,50330.38
2023-04-22T03:52:15.181Z,50325.59
2023-04-22T03:54:48.364Z,50333.18
2023-04-22T03:57:16.828Z,50304.39
2023-04-22T03:59:46.725Z,50321.18
2023-04-22T04:02:15.398Z,50317.18
2023-04-22T04:04:44.055Z,50349.98
2023-04-22T04:07:14.776Z,50313.19
2023-04-22T04:09:43.383Z,50325.98
2023-04-22T04:12:12.152Z,50315.19
2023-04-22T04:14:43.649Z,50302.39
2023-04-22T04:17:14.276Z,50304.79
2023-04-22T04:19:43.831Z,50310.39
2023-04-22T04:22:12.242Z,50316.78
2023-04-22T04:24:48.018Z,50318.78
2023-04-22T04:27:21.235Z,50326.38
2023-04-22T04:29:56.178Z,50318.38
2023-04-22T04:32:38.231Z,50306.39
2023-04-22T04:35:09.396Z,50330.38
2023-04-22T04:37:40.510Z,50318.39
2023-04-22T04:40:12.501Z,50311.59
2023-04-22T04:42:48.844Z,50319.98
2023-04-22T04:45:23.053Z,50290.39
2023-04-22T04:47:55.292Z,50317.98
2023-04-22T04:50:31.885Z,50314.78
2023-04-22T04:53:03.605Z,50295.20
2023-04-22T04:55:37.217Z,50301.19
2023-04-22T04:58:09.999Z,50319.58
2023-04-22T05:00:39.073Z,50313.18
2023-04-22T05:03:07.790Z,50304.79
2023-04-22T05:05:36.682Z,50321.98
2023-04-22T05:08:04.993Z,50312.38
2023-04-22T05:10:34.615Z,50297.59
2023-04-22T05:13:04.237Z,50290.79
2023-04-22T05:15:33.629Z,50303.19
2023-04-22T05:18:02.016Z,50303.19
2023-04-22T05:20:32.645Z,50301.59
2023-04-22T05:23:03.565Z,50290.40
2023-04-22T05:25:32.002Z,50307.59
2023-04-22T05:28:06.674Z,50299.19
2023-04-22T05:30:40.769Z,50290.79
2023-04-22T05:33:11.504Z,50305.19
2023-04-22T05:35:40.421Z,50277.60
2023-04-22T05:38:26.883Z,50279.59
2023-04-22T05:40:56.760Z,50297.99
2023-04-22T05:43:26.117Z,50288.00
2023-04-22T05:45:59.610Z,50284.79
2023-04-22T05:48:28.217Z,50278.00
2023-04-22T05:51:02.015Z,50277.20
2023-04-22T05:53:31.239Z,50258.01
2023-04-22T05:56:01.352Z,50270.00
2023-04-22T05:58:29.932Z,50272.80
2023-04-22T06:01:08.102Z,50264.80
2023-04-22T06:03:58.574Z,50259.21
2023-04-22T06:06:27.664Z,50258.41
2023-04-22T06:08:56.004Z,50253.60
2023-04-22T06:11:24.442Z,50257.21
2023-04-22T06:13:53.368Z,50257.21
2023-04-22T06:16:22.689Z,50261.20
2023-04-22T06:18:51.341Z,50261.20
2023-04-22T06:21:20.839Z,50256.41
2023-04-22T06:23:51.498Z,50241.21
2023-04-22T06:26:19.808Z,50245.61
2023-04-22T06:28:47.983Z,50250.41
2023-04-22T06:31:20.522Z,50240.80
2023-04-22T06:33:50.043Z,50253.21
2023-04-22T06:36:19.265Z,50241.61
2023-04-22T06:38:52.160Z,50232.02
2023-04-22T06:41:33.597Z,50242.01
2023-04-22T06:44:07.796Z,50242.01
2023-04-22T06:47:05.679Z,50228.41
2023-04-22T06:49:49.412Z,50213.62
2023-04-22T06:52:47.375Z,50202.42
2023-04-22T06:55:15.766Z,50214.42
2023-04-22T06:57:44.343Z,50212.82
2023-04-22T07:00:13.294Z,50221.22
2023-04-22T07:02:42.706Z,50215.22
2023-04-22T07:05:11.404Z,50233.21
2023-04-22T07:07:40.817Z,50207.62
2023-04-22T07:10:12.705Z,50208.02
2023-04-22T07:12:45.694Z,50218.82
2023-04-22T07:15:13.940Z,50211.62
2023-04-22T07:17:42.553Z,50205.22
2023-04-22T07:20:12.463Z,50217.22
2023-04-22T07:22:40.643Z,50226.41
2023-04-22T07:25:09.406Z,50220.02
2023-04-22T07:27:38.340Z,50235.61
2023-04-22T07:30:09.512Z,50207.62
2023-04-22T07:32:38.125Z,50214.42
2023-04-22T07:35:07.425Z,50220.41
2023-04-22T07:37:38.810Z,50212.82
2023-04-22T07:40:12.095Z,50212.82
2023-04-22T07:42:40.592Z,50206.42
2023-04-22T07:45:09.008Z,50214.82
2023-04-22T07:47:37.421Z,50194.02
2023-04-22T07:50:07.931Z,50202.02
2023-04-22T07:52:36.771Z,50197.23
2023-04-22T07:55:06.479Z,50190.43
2023-04-22T07:57:38.873Z,50188.83
2023-04-22T08:00:09.382Z,50219.62
2023-04-22T08:02:41.196Z,50212.02
2023-04-22T08:05:10.282Z,50219.21
2023-04-22T08:07:39.346Z,50222.82
2023-04-22T08:10:08.298Z,50208.02
2023-04-22T08:12:37.208Z,50219.61
2023-04-22T08:15:06.410Z,50225.62
2023-04-22T08:17:35.036Z,50226.41
2023-04-22T08:20:06.592Z,50232.41
2023-04-22T08:22:36.884Z,50230.81
2023-04-22T08:25:07.916Z,50245.21
2023-04-22T08:27:36.613Z,50251.61
2023-04-22T08:30:07.906Z,50235.21
2023-04-22T08:32:36.399Z,50237.21
2023-04-22T08:35:06.818Z,50238.41
2023-04-22T08:37:35.453Z,50221.21
2023-04-22T08:40:04.934Z,50238.41
2023-04-22T08:42:33.545Z,50230.81
2023-04-22T08:45:04.801Z,50226.82
2023-04-22T08:47:33.899Z,50227.62
2023-04-22T08:50:04.531Z,50222.82
2023-04-22T08:52:33.352Z,50214.42
2023-04-22T08:55:03.462Z,50238.41
2023-04-22T08:57:32.329Z,50223.21
2023-04-22T09:00:01.740Z,50234.01
2023-04-22T09:02:32.771Z,50244.41
2023-04-22T09:05:06.100Z,50237.21
2023-04-22T09:07:36.584Z,50240.01
2023-04-22T09:10:05.652Z,50243.21
2023-04-22T09:12:34.259Z,50246.01
2023-04-22T09:15:04.492Z,50242.01
2023-04-22T09:17:34.550Z,50244.81
2023-04-22T09:20:05.984Z,50220.02
2023-04-22T09:22:48.876Z,50230.41
2023-04-22T09:25:27.192Z,50220.02
2023-04-22T09:27:58.513Z,50209.62
2023-04-22T09:30:30.140Z,50202.42
2023-04-22T09:33:05.775Z,50208.42
2023-04-22T09:35:38.109Z,50203.62
2023-04-22T09:38:10.348Z,50201.23
2023-04-22T09:40:43.371Z,50209.62
2023-04-22T09:43:12.216Z,50206.02
2023-04-22T09:45:43.045Z,50190.43
2023-04-22T09:48:14.620Z,50191.23
2023-04-22T09:50:48.481Z,50187.23
2023-04-22T09:53:21.758Z,50190.03
2023-04-22T09:55:53.074Z,50195.63
2023-04-22T09:58:28.012Z,50198.82
2023-04-22T10:01:03.586Z,50204.43
2023-04-22T10:03:32.573Z,50204.43
2023-04-22T10:06:00.925Z,50200.82
2023-04-22T10:08:34.200Z,50193.63
2023-04-22T10:11:08.458Z,50201.63
2023-04-22T10:13:36.995Z,50203.22
2023-04-22T10:16:05.762Z,50200.82
2023-04-22T10:18:35.281Z,50193.23
2023-04-22T10:21:04.629Z,50202.02
2023-04-22T10:23:34.356Z,50197.63
2023-04-22T10:26:06.185Z,50189.23
2023-04-22T10:28:34.874Z,50192.43
2023-04-22T10:31:07.801Z,50202.82
2023-04-22T10:33:39.186Z,50195.63
2023-04-22T10:36:17.957Z,50200.02
2023-04-22T10:38:50.577Z,50193.63
2023-04-22T10:41:24.573Z,50192.02
2023-04-22T10:44:00.984Z,50193.23
2023-04-22T10:46:37.370Z,50214.42
2023-04-22T10:49:11.899Z,50187.63
2023-04-22T10:51:42.072Z,50199.23
2023-04-22T10:54:31.739Z,50209.22
2023-04-22T10:57:11.214Z,50189.23
2023-04-22T10:59:50.557Z,50191.63
2023-04-22T11:02:20.448Z,50193.23
2023-04-22T11:04:50.847Z,50162.44
2023-04-22T11:07:30.836Z,50170.04
2023-04-22T11:10:05.401Z,50168.84
2023-04-22T11:12:39.428Z,50193.23
2023-04-22T11:15:16.468Z,50185.63
2023-04-22T11:17:52.277Z,50181.63
2023-04-22T11:20:22.536Z,50175.23
2023-04-22T11:22:57.453Z,50192.02
2023-04-22T11:25:27.305Z,50178.03
2023-04-22T11:27:57.836Z,50163.64
2023-04-22T11:30:28.457Z,50165.64
2023-04-22T11:32:59.999Z,50166.84
2023-04-22T11:35:32.578Z,50179.23
2023-04-22T11:38:06.448Z,50159.64
2023-04-22T11:40:39.407Z,50149.64
2023-04-22T11:43:10.336Z,50159.64
2023-04-22T11:45:39.662Z,50153.24
2023-04-22T11:48:09.801Z,50161.64
2023-04-22T11:50:40.236Z,50150.44
2023-04-22T11:53:17.151Z,50152.44
2023-04-22T11:55:47.594Z,50131.25
2023-04-22T11:58:19.514Z,50146.04
2023-04-22T12:00:52.303Z,50152.84
2023-04-22T12:03:24.726Z,50149.24
2023-04-22T12:05:55.882Z,50153.24
2023-04-22T12:08:36.788Z,50136.04
2023-04-22T12:11:08.294Z,50149.64
2023-04-22T12:13:36.540Z,50136.05
2023-04-22T12:16:13.775Z,50131.65
2023-04-22T12:18:54.433Z,50124.85
2023-04-22T12:21:28.626Z,50132.45
2023-04-22T12:24:01.371Z,50142.04
2023-04-22T12:26:29.650Z,50141.24
2023-04-22T12:28:59.839Z,50173.64
2023-04-22T12:31:28.324Z,50161.64
2023-04-22T12:33:57.878Z,50156.84
2023-04-22T12:36:26.529Z,50140.45
2023-04-22T12:38:54.777Z,50145.24
2023-04-22T12:41:24.335Z,50157.24
2023-04-22T12:43:53.136Z,50159.24
2023-04-22T12:46:21.648Z,50149.24
2023-04-22T12:48:50.785Z,50165.64
2023-04-22T12:51:19.116Z,50162.84
2023-04-22T12:53:47.697Z,50157.64
2023-04-22T12:56:15.966Z,50150.44
2023-04-22T12:58:44.394Z,50165.64
2023-04-22T13:01:12.990Z,50160.44
2023-04-22T13:03:41.863Z,50152.45
2023-04-22T13:06:10.198Z,50154.44
2023-04-22T13:08:38.387Z,50148.84
2023-04-22T13:11:07.422Z,50158.84
2023-04-22T13:13:35.847Z,50150.44
2023-04-22T13:16:04.312Z,50162.04
2023-04-22T13:18:33.678Z,50177.23
2023-04-22T13:21:02.349Z,50166.43
2023-04-22T13:23:31.030Z,50153.64
2023-04-22T13:25:59.926Z,50152.84
2023-04-22T13:28:28.467Z,50180.43
2023-04-22T13:30:57.038Z,50172.04
2023-04-22T13:33:25.986Z,50174.84
2023-04-22T13:35:54.367Z,50150.04
2023-04-22T13:38:23.527Z,50150.04
2023-04-22T13:40:51.779Z,50168.04
2023-04-22T13:43:20.125Z,50162.04
2023-04-22T13:45:49.038Z,50169.24
2023-04-22T13:48:17.213Z,50174.03
2023-04-22T13:50:45.756Z,50177.63
2023-04-22T13:53:15.337Z,50174.03
2023-04-22T13:55:43.731Z,50176.03
2023-04-22T13:58:12.301Z,50169.24
2023-04-22T14:00:40.640Z,50162.04
2023-04-22T14:03:09.215Z,50168.84
2023-04-22T14:05:37.663Z,50174.83
2023-04-22T14:08:05.876Z,50164.04
2023-04-22T14:10:36.945Z,50166.44
2023-04-22T14:13:05.940Z,50169.24
2023-04-22T14:15:34.461Z,50165.63
2023-04-22T14:18:02.741Z,50153.64
2023-04-22T14:20:31.651Z,50166.44
2023-04-22T14:23:01.080Z,50158.04
2023-04-22T14:25:29.293Z,50151.24
2023-04-22T14:27:57.581Z,50158.84
2023-04-22T14:30:26.036Z,50156.84
2023-04-22T14:32:54.255Z,50157.24
2023-04-22T14:35:23.350Z,50164.84
2023-04-22T14:37:51.532Z,50168.84
2023-04-22T14:40:23.263Z,50157.24
2023-04-22T14:42:51.489Z,50157.24
2023-04-22T14:45:19.934Z,50160.43
2023-04-22T14:47:48.682Z,50154.44
2023-04-22T14:50:16.966Z,50155.64
2023-04-22T14:52:45.187Z,50153.64
2023-04-22T14:55:22.537Z,50165.23
2023-04-22T14:57:54.506Z,50166.84
2023-04-22T15:00:23.967Z,50163.64
2023-04-22T15:02:54.948Z,50150.84
2023-04-22T15:05:23.875Z,50163.24
2023-04-22T15:07:55.104Z,50158.44
2023-04-22T15:10:24.917Z,50151.64
2023-04-22T15:12:54.730Z,50161.64
2023-04-22T15:15:23.114Z,50156.04
2023-04-22T15:17:53.747Z,50134.84
2023-04-22T15:20:23.197Z,50148.04
2023-04-22T15:22:52.284Z,50148.04
2023-04-22T15:25:21.398Z,50132.85
2023-04-22T15:27:49.556Z,50138.84
2023-04-22T15:30:17.904Z,50147.64
2023-04-22T15:32:46.778Z,50155.64
2023-04-22T15:35:15.197Z,50148.44
2023-04-22T15:37:45.964Z,50150.04
2023-04-22T15:40:15.561Z,50154.04
2023-04-22T15:42:43.727Z,50146.84
2023-04-22T15:45:12.193Z,50148.45
2023-04-22T15:47:41.488Z,50135.64
2023-04-22T15:50:10.842Z,50149.64
2023-04-22T15:52:39.275Z,50147.64
2023-04-22T15:55:08.524Z,50146.04
2023-04-22T15:57:36.971Z,50132.45
2023-04-22T16:00:13.140Z,50141.64
2023-04-22T16:02:44.440Z,50158.04
2023-04-22T16:05:14.800Z,50139.24
2023-04-22T16:07:43.394Z,50147.24
2023-04-22T16:10:12.267Z,50139.64
2023-04-22T16:12:42.517Z,50151.64
2023-04-22T16:15:11.286Z,50154.84
2023-04-22T16:17:39.640Z,50160.04
2023-04-22T16:20:09.620Z,50154.04
2023-04-22T16:22:37.971Z,50174.83
2023-04-22T16:25:07.042Z,50159.64
2023-04-22T16:27:35.544Z,50161.24
2023-04-22T16:30:04.328Z,50164.44
2023-04-22T16:32:32.943Z,50170.84
2023-04-22T16:35:01.614Z,50194.43
2023-04-22T16:37:30.367Z,50180.03
2023-04-22T16:39:58.650Z,50180.83
2023-04-22T16:42:27.747Z,50175.63
2023-04-22T16:44:56.673Z,50186.03
2023-04-22T16:47:29.126Z,50198.02
2023-04-22T16:49:57.402Z,50186.83
2023-04-22T16:52:26.122Z,50190.82
2023-04-22T16:54:54.452Z,50188.43
2023-04-22T16:57:23.258Z,50208.82
2023-04-22T16:59:53.912Z,50205.23
2023-04-22T17:02:22.404Z,50202.43
2023-04-22T17:04:51.193Z,50207.62
2023-04-22T17:07:19.638Z,50209.22
2023-04-22T17:09:49.135Z,50213.22
2023-04-22T17:12:18.164Z,50224.41
2023-04-22T17:14:46.564Z,50225.62
2023-04-22T17:17:14.935Z,50215.62
2023-04-22T17:19:44.065Z,50224.02
2023-04-22T17:22:12.913Z,50222.42
2023-04-22T17:24:41.169Z,50230.01
2023-04-22T17:27:09.609Z,50228.41
2023-04-22T17:29:38.126Z,50240.81
2023-04-22T17:32:07.229Z,50226.41
2023-04-22T17:34:35.528Z,50224.02
2023-04-22T17:37:03.739Z,50221.21
2023-04-22T17:39:33.178Z,50235.61
2023-04-22T17:42:02.933Z,50238.41
2023-04-22T17:44:31.848Z,50219.22
2023-04-22T17:47:00.265Z,50234.01
2023-04-22T17:49:28.614Z,50240.41
2023-04-22T17:51:56.885Z,50230.02
2023-04-22T17:54:36.808Z,50226.81
2023-04-22T17:57:05.323Z,50215.22
2023-04-22T17:59:33.668Z,50256.41
2023-04-22T18:02:02.384Z,50232.41
2023-04-22T18:04:31.997Z,50232.81
2023-04-22T18:07:02.732Z,50246.80
2023-04-22T18:09:30.920Z,50231.21
2023-04-22T18:11:59.914Z,50251.21
2023-04-22T18:14:28.438Z,50244.41
2023-04-22T18:16:57.058Z,50233.61
2023-04-22T18:19:25.503Z,50238.81
2023-04-22T18:22:00.066Z,50254.01
2023-04-22T18:24:28.847Z,50239.21
2023-04-22T18:26:58.181Z,50244.01
2023-04-22T18:29:26.675Z,50242.80
2023-04-22T18:31:55.269Z,50245.21
2023-04-22T18:34:23.796Z,50229.21
2023-04-22T18:36:51.993Z,50242.41
2023-04-22T18:39:20.372Z,50243.21
2023-04-22T18:41:48.881Z,50249.21
2023-04-22T18:44:17.609Z,50248.01
2023-04-22T18:46:46.565Z,50250.01
2023-04-22T18:49:16.291Z,50262.80
2023-04-22T18:51:46.993Z,50246.80
2023-04-22T18:54:16.380Z,50256.41
2023-04-22T18:56:46.015Z,50258.01
2023-04-22T18:59:14.528Z,50260.80
2023-04-22T19:01:43.400Z,50243.61
2023-04-22T19:04:11.978Z,50261.60
2023-04-22T19:06:41.619Z,50250.80
2023-04-22T19:09:09.975Z,50258.41
2023-04-22T19:11:38.731Z,50264.80
2023-04-22T19:14:08.064Z,50245.61
2023-04-22T19:16:36.497Z,50262.40
2023-04-22T19:19:05.370Z,50245.61
2023-04-22T19:21:33.880Z,50260.41
2023-04-22T19:24:04.329Z,50255.60
2023-04-22T19:26:32.781Z,50248.01
2023-04-22T19:29:01.623Z,50242.80
2023-04-22T19:31:30.244Z,50270.00
2023-04-22T19:33:59.791Z,50262.00
2023-04-22T19:36:28.346Z,50257.20
2023-04-22T19:38:56.635Z,50275.60
2023-04-22T19:41:25.220Z,50268.40
2023-04-22T19:43:55.699Z,50275.60
2023-04-22T19:46:24.257Z,50265.21
2023-04-22T19:48:52.763Z,50274.00
2023-04-22T19:51:21.797Z,50268.40
2023-04-22T19:53:50.925Z,50281.99
2023-04-22T19:56:19.317Z,50282.79
2023-04-22T19:58:47.901Z,50262.40
2023-04-22T20:01:16.794Z,50273.60
2023-04-22T20:03:45.408Z,50271.60
2023-04-22T20:06:15.306Z,50269.20
2023-04-22T20:08:44.565Z,50277.60
2023-04-22T20:11:13.137Z,50266.00
2023-04-22T20:13:42.479Z,50263.21
2023-04-22T20:16:13.901Z,50269.60
2023-04-22T20:18:42.342Z,50267.20
2023-04-22T20:21:10.670Z,50275.60
2023-04-22T20:23:41.788Z,50255.21
2023-04-22T20:26:10.680Z,50278.80
2023-04-22T20:28:48.329Z,50247.61
2023-04-22T20:31:18.855Z,50266.00
2023-04-22T20:33:49.228Z,50268.00
2023-04-22T20:36:18.382Z,50268.00
2023-04-22T20:38:49.555Z,50255.61
2023-04-22T20:41:21.183Z,50263.21
2023-04-22T20:43:49.596Z,50268.00
2023-04-22T20:46:18.841Z,50281.20
2023-04-22T20:48:48.664Z,50264.01
2023-04-22T20:51:19.661Z,50252.01
2023-04-22T20:53:48.233Z,50269.20
2023-04-22T20:56:16.957Z,50263.60
2023-04-22T20:58:45.188Z,50266.80
2023-04-22T21:01:16.528Z,50274.79
2023-04-22T21:03:52.157Z,50276.00
2023-04-22T21:06:21.343Z,50265.60
2023-04-22T21:08:50.836Z,50262.80
2023-04-22T21:11:19.412Z,50256.41
2023-04-22T21:13:49.090Z,50246.41
2023-04-22T21:16:19.496Z,50262.41
2023-04-22T21:18:49.094Z,50259.61
2023-04-22T21:21:19.929Z,50255.60
2023-04-22T21:23:48.790Z,50263.60
2023-04-22T21:26:18.786Z,50271.60
2023-04-22T21:28:47.706Z,50269.20
2023-04-22T21:31:16.460Z,50265.20
2023-04-22T21:33:44.809Z,50267.61
2023-04-22T21:36:13.465Z,50276.40
2023-04-22T21:38:42.591Z,50262.40
2023-04-22T21:41:10.854Z,50270.00
2023-04-22T21:43:39.009Z,50258.00
2023-04-22T21:46:07.581Z,50265.20
2023-04-22T21:48:36.111Z,50267.60
2023-04-22T21:51:04.654Z,50264.40
2023-04-22T21:53:33.462Z,50271.20
2023-04-22T21:56:01.762Z,50253.61
2023-04-22T21:58:29.924Z,50275.60
2023-04-22T22:00:58.371Z,50284.79
2023-04-22T22:03:26.837Z,50256.80
2023-04-22T22:05:55.328Z,50285.20
2023-04-22T22:08:23.633Z,50268.00
2023-04-22T22:10:51.844Z,50267.60
2023-04-22T22:13:20.119Z,50280.00
2023-04-22T22:15:48.498Z,50280.40
2023-04-22T22:18:17.176Z,50287.99
2023-04-22T22:20:45.345Z,50262.80
2023-04-22T22:23:13.591Z,50272.00
2023-04-22T22:25:41.803Z,50272.40
2023-04-22T22:28:10.259Z,50291.99
2023-04-22T22:30:38.468Z,50286.39
2023-04-22T22:33:06.680Z,50289.99
2023-04-22T22:35:34.900Z,50274.00
2023-04-22T22:38:03.161Z,50277.60
2023-04-22T22:40:31.399Z,50270.40
2023-04-22T22:42:59.591Z,50273.20
2023-04-22T22:45:27.836Z,50282.80
2023-04-22T22:47:56.169Z,50291.59
2023-04-22T22:50:24.886Z,50278.00
2023-04-22T22:52:53.149Z,50285.59
2023-04-22T22:55:21.322Z,50279.60
2023-04-22T22:57:49.506Z,50289.99
2023-04-22T23:00:17.896Z,50270.40
2023-04-22T23:02:46.323Z,50260.41
2023-04-22T23:05:14.797Z,50280.80
2023-04-22T23:07:42.961Z,50283.99
2023-04-22T23:10:12.009Z,50278.00
2023-04-22T23:12:40.475Z,50287.20
2023-04-22T23:15:09.070Z,50297.19
2023-04-22T23:17:38.083Z,50277.99
2023-04-22T23:20:11.784Z,50286.79
2023-04-22T23:22:40.810Z,50292.79
2023-04-22T23:25:10.166Z,50297.19
2023-04-22T23:27:39.496Z,50275.20
2023-04-22T23:30:08.811Z,50291.59
2023-04-22T23:32:39.746Z,50289.20
2023-04-22T23:35:11.064Z,50305.19
2023-04-22T23:37:44.762Z,50290.39
2023-04-22T23:40:13.608Z,50276.00
2023-04-22T23:42:41.810Z,50292.40
2023-04-22T23:45:10.999Z,50284.79
2023-04-22T23:47:40.101Z,50294.39
2023-04-22T23:50:09.124Z,50292.79
2023-04-22T23:52:41.438Z,50288.39
2023-04-22T23:55:11.838Z,50276.80
2023-04-22T23:57:40.599Z,50280.40
